首页
METAR-TAF:

METAR-TAF

机场 :

Porter County Municipal Airport

瓦尔帕莱索, 印第安纳州, 美国

纬度: 41-27-11N, 经度: 086-59-53W, 海拔: 234米

当前天气观测

该预报发布于15分钟前的07:56 UTC
风速16节,风向西,有时为22节阵风
温度 -4°C
湿度 74%
气压 1012 hPa
能見度: 16.1公里
阴天层高于1700英尺

METAR: KVPZ 100756Z AUTO 27016G22KT 10SM OVC017 M04/M08 A2989 RMK AO2 SLP127 T10391078

时间: 02:11 (08:11 UTC)


TAF: 丢失

超过4000个机场的气象观测和天气预报(METAR&TAF报告)。

可查询的气象台以黄色和红色小点在地图上表示。

将鼠标移到小点上方,可查看气象台名称。

然后点击查看天气观测和预报。

如需切换地图:点击带黑十字的绿色按钮放大地图;点击带横线的绿色按钮缩小地图;或者点击绿色箭头查看邻近地区的地图。


METAR-TAF: